N165SL KSNA-KHND
Flight info
| Callsign | N165SL |
|---|---|
| Flight time | 1h 6m |
| Altitude | 33000 |
| Route | FINZZ3 MISEN NTNDO1 |
| Aircraft | P180/L-SBDFGM3RWXY/LB1 |
Departure
| Time | 2026-05-07 22:43 |
|---|---|
| Airport | John Wayne Orange County International Airport (KSNA) |
Arrival
| Time | 2026-05-07 23:49 |
|---|---|
| Airport | Henderson Executive Airport (KHND) |
| Time | Latitude | Longitude | Altitude | Speed | Heading |
|---|---|---|---|---|---|
| 2026-05-07 22:21 | 33.67364 | -117.87236 | 48 ft | 0 kts | 299° |
| 2026-05-07 22:39 | 33.67364 | -117.87237 | 51 ft | 1 kts | 300° |
| 2026-05-07 22:39 | 33.67373 | -117.87237 | 51 ft | 2 kts | 30° |
| 2026-05-07 22:39 | 33.67387 | -117.87200 | 51 ft | 7 kts | 68° |
| 2026-05-07 22:40 | 33.67421 | -117.87131 | 50 ft | 12 kts | 40° |
| 2026-05-07 22:40 | 33.67502 | -117.87077 | 50 ft | 15 kts | 27° |
| 2026-05-07 22:40 | 33.67614 | -117.87006 | 49 ft | 21 kts | 28° |
| 2026-05-07 22:40 | 33.67750 | -117.86920 | 49 ft | 23 kts | 27° |
| 2026-05-07 22:41 | 33.67875 | -117.86841 | 49 ft | 18 kts | 28° |
| 2026-05-07 22:41 | 33.67996 | -117.86783 | 49 ft | 20 kts | 24° |
| 2026-05-07 22:41 | 33.68125 | -117.86701 | 49 ft | 19 kts | 27° |
| 2026-05-07 22:41 | 33.68186 | -117.86582 | 49 ft | 19 kts | 104° |
| 2026-05-07 22:42 | 33.68140 | -117.86523 | 49 ft | 6 kts | 215° |
| 2026-05-07 22:42 | 33.68133 | -117.86528 | 49 ft | 9 kts | 210° |
| 2026-05-07 22:42 | 33.67819 | -117.86727 | 49 ft | 86 kts | 208° |
| 2026-05-07 22:42 | 33.67199 | -117.87131 | 349 ft | 102 kts | 208° |
| 2026-05-07 22:43 | 33.66543 | -117.87579 | 827 ft | 120 kts | 207° |
| 2026-05-07 22:43 | 33.66008 | -117.87921 | 1086 ft | 140 kts | 207° |
| 2026-05-07 22:43 | 33.65084 | -117.88496 | 1632 ft | 155 kts | 207° |
| 2026-05-07 22:43 | 33.64089 | -117.89085 | 2297 ft | 164 kts | 208° |
| 2026-05-07 22:44 | 33.63019 | -117.89576 | 3070 ft | 169 kts | 188° |
| 2026-05-07 22:44 | 33.61865 | -117.89702 | 3919 ft | 167 kts | 188° |
| 2026-05-07 22:44 | 33.60673 | -117.89895 | 4540 ft | 176 kts | 190° |
| 2026-05-07 22:44 | 33.59444 | -117.89770 | 5276 ft | 179 kts | 174° |
| 2026-05-07 22:45 | 33.58207 | -117.89749 | 5941 ft | 178 kts | 191° |
| 2026-05-07 22:45 | 33.57023 | -117.90141 | 6573 ft | 176 kts | 214° |
| 2026-05-07 22:45 | 33.56108 | -117.91113 | 7171 ft | 179 kts | 227° |
| 2026-05-07 22:45 | 33.55197 | -117.92147 | 7852 ft | 183 kts | 224° |
| 2026-05-07 22:46 | 33.54212 | -117.93242 | 7999 ft | 203 kts | 226° |
| 2026-05-07 22:46 | 33.53158 | -117.94449 | 8008 ft | 216 kts | 226° |
| 2026-05-07 22:46 | 33.52041 | -117.95711 | 8010 ft | 225 kts | 224° |
| 2026-05-07 22:46 | 33.50882 | -117.97014 | 8010 ft | 231 kts | 225° |
| 2026-05-07 22:47 | 33.49750 | -117.98367 | 8003 ft | 229 kts | 234° |
| 2026-05-07 22:47 | 33.49237 | -118.00108 | 8000 ft | 223 kts | 269° |
| 2026-05-07 22:47 | 33.49529 | -118.01883 | 8060 ft | 215 kts | 300° |
| 2026-05-07 22:47 | 33.50399 | -118.03191 | 8678 ft | 189 kts | 316° |
| 2026-05-07 22:48 | 33.51254 | -118.04300 | 9511 ft | 179 kts | 315° |
| 2026-05-07 22:48 | 33.52114 | -118.05401 | 10136 ft | 182 kts | 317° |
| 2026-05-07 22:48 | 33.52994 | -118.06517 | 10717 ft | 186 kts | 316° |
| 2026-05-07 22:48 | 33.53884 | -118.07661 | 11280 ft | 190 kts | 316° |
| 2026-05-07 22:49 | 33.54791 | -118.08825 | 11849 ft | 192 kts | 316° |
| 2026-05-07 22:49 | 33.55710 | -118.10005 | 12413 ft | 195 kts | 316° |
| 2026-05-07 22:49 | 33.56641 | -118.11198 | 12966 ft | 197 kts | 316° |
| 2026-05-07 22:49 | 33.57645 | -118.12313 | 13571 ft | 195 kts | 335° |
| 2026-05-07 22:50 | 33.58936 | -118.12664 | 14146 ft | 191 kts | 4° |
| 2026-05-07 22:50 | 33.60190 | -118.12237 | 14663 ft | 188 kts | 28° |
| 2026-05-07 22:50 | 33.61374 | -118.11540 | 15171 ft | 191 kts | 27° |
| 2026-05-07 22:50 | 33.62579 | -118.10856 | 15695 ft | 192 kts | 27° |
| 2026-05-07 22:51 | 33.63782 | -118.10149 | 16197 ft | 193 kts | 27° |
| 2026-05-07 22:51 | 33.64998 | -118.09441 | 16696 ft | 195 kts | 27° |
| 2026-05-07 22:51 | 33.66204 | -118.08738 | 17171 ft | 196 kts | 27° |
| 2026-05-07 22:51 | 33.67437 | -118.08021 | 17646 ft | 198 kts | 27° |
| 2026-05-07 22:52 | 33.68679 | -118.07297 | 18112 ft | 199 kts | 27° |
| 2026-05-07 22:52 | 33.69931 | -118.06569 | 18543 ft | 200 kts | 27° |
| 2026-05-07 22:52 | 33.71185 | -118.05838 | 18963 ft | 201 kts | 27° |
| 2026-05-07 22:52 | 33.72443 | -118.05106 | 19417 ft | 201 kts | 27° |
| 2026-05-07 22:53 | 33.73708 | -118.04368 | 19841 ft | 203 kts | 27° |
| 2026-05-07 22:53 | 33.74984 | -118.03624 | 20260 ft | 204 kts | 27° |
| 2026-05-07 22:53 | 33.76266 | -118.02876 | 20649 ft | 206 kts | 27° |
| 2026-05-07 22:53 | 33.77559 | -118.02121 | 21080 ft | 207 kts | 26° |
| 2026-05-07 22:54 | 33.78862 | -118.01361 | 21512 ft | 209 kts | 26° |
| 2026-05-07 22:54 | 33.80174 | -118.00595 | 21946 ft | 211 kts | 26° |
| 2026-05-07 22:54 | 33.81497 | -117.99822 | 22395 ft | 212 kts | 26° |
| 2026-05-07 22:54 | 33.82830 | -117.99045 | 22867 ft | 214 kts | 26° |
| 2026-05-07 22:55 | 33.84172 | -117.98258 | 23326 ft | 215 kts | 26° |
| 2026-05-07 22:55 | 33.85527 | -117.97468 | 23756 ft | 217 kts | 25° |
| 2026-05-07 22:55 | 33.86889 | -117.96669 | 24156 ft | 218 kts | 26° |
| 2026-05-07 22:55 | 33.88257 | -117.95868 | 24587 ft | 219 kts | 26° |
| 2026-05-07 22:56 | 33.89629 | -117.95065 | 25018 ft | 219 kts | 25° |
| 2026-05-07 22:56 | 33.90970 | -117.94204 | 25457 ft | 220 kts | 34° |
| 2026-05-07 22:56 | 33.92186 | -117.93060 | 25868 ft | 223 kts | 37° |
| 2026-05-07 22:56 | 33.93414 | -117.91924 | 26287 ft | 223 kts | 36° |
| 2026-05-07 22:57 | 33.94664 | -117.90794 | 26618 ft | 226 kts | 36° |
| 2026-05-07 22:57 | 33.95918 | -117.89651 | 27030 ft | 226 kts | 36° |
| 2026-05-07 22:57 | 33.97175 | -117.88501 | 27392 ft | 229 kts | 36° |
| 2026-05-07 22:57 | 33.98444 | -117.87340 | 27814 ft | 229 kts | 36° |
| 2026-05-07 22:58 | 33.99719 | -117.86176 | 28179 ft | 231 kts | 36° |
| 2026-05-07 22:58 | 34.01003 | -117.85000 | 28556 ft | 232 kts | 36° |
| 2026-05-07 22:58 | 34.02292 | -117.83820 | 28927 ft | 234 kts | 36° |
| 2026-05-07 22:58 | 34.03618 | -117.82607 | 29018 ft | 246 kts | 36° |
| 2026-05-07 22:59 | 34.05020 | -117.81324 | 29027 ft | 260 kts | 36° |
| 2026-05-07 22:59 | 34.06489 | -117.79977 | 29027 ft | 270 kts | 36° |
| 2026-05-07 22:59 | 34.08015 | -117.78577 | 29032 ft | 281 kts | 36° |
| 2026-05-07 22:59 | 34.09476 | -117.76940 | 29029 ft | 293 kts | 46° |
| 2026-05-07 23:00 | 34.10782 | -117.75006 | 29029 ft | 302 kts | 49° |
| 2026-05-07 23:00 | 34.13503 | -117.70992 | 29020 ft | 315 kts | 49° |
| 2026-05-07 23:01 | 34.16316 | -117.66811 | 29017 ft | 326 kts | 49° |
| 2026-05-07 23:01 | 34.19206 | -117.62519 | 29012 ft | 333 kts | 49° |
| 2026-05-07 23:02 | 34.22174 | -117.58114 | 29012 ft | 343 kts | 50° |
| 2026-05-07 23:02 | 34.25229 | -117.53557 | 28997 ft | 354 kts | 49° |
| 2026-05-07 23:03 | 34.28359 | -117.48897 | 28990 ft | 360 kts | 49° |
| 2026-05-07 23:03 | 34.31530 | -117.44150 | 28978 ft | 365 kts | 49° |
| 2026-05-07 23:04 | 34.34742 | -117.39365 | 28978 ft | 368 kts | 50° |
| 2026-05-07 23:04 | 34.37961 | -117.34535 | 28974 ft | 370 kts | 50° |
| 2026-05-07 23:05 | 34.41180 | -117.29721 | 28964 ft | 371 kts | 50° |
| 2026-05-07 23:05 | 34.44421 | -117.24848 | 28959 ft | 372 kts | 50° |
| 2026-05-07 23:06 | 34.47669 | -117.19971 | 29015 ft | 372 kts | 50° |
| 2026-05-07 23:06 | 34.50912 | -117.15085 | 28955 ft | 372 kts | 49° |
| 2026-05-07 23:07 | 34.54156 | -117.10205 | 28949 ft | 371 kts | 50° |
| 2026-05-07 23:07 | 34.57459 | -117.05411 | 28932 ft | 370 kts | 48° |
| 2026-05-07 23:08 | 34.60738 | -117.00605 | 28934 ft | 369 kts | 49° |
| 2026-05-07 23:08 | 34.64037 | -116.95827 | 28938 ft | 369 kts | 48° |
| 2026-05-07 23:09 | 34.67308 | -116.91020 | 28947 ft | 369 kts | 49° |
| 2026-05-07 23:09 | 34.70603 | -116.86227 | 28951 ft | 370 kts | 49° |
| 2026-05-07 23:10 | 34.73874 | -116.81417 | 28956 ft | 369 kts | 49° |
| 2026-05-07 23:10 | 34.77155 | -116.76627 | 28963 ft | 368 kts | 49° |
| 2026-05-07 23:11 | 34.80417 | -116.71820 | 28960 ft | 368 kts | 49° |
| 2026-05-07 23:11 | 34.83687 | -116.67022 | 28957 ft | 368 kts | 49° |
| 2026-05-07 23:12 | 34.87212 | -116.62543 | 28943 ft | 366 kts | 38° |
| 2026-05-07 23:12 | 34.91311 | -116.58877 | 28929 ft | 366 kts | 37° |
| 2026-05-07 23:13 | 34.95221 | -116.54909 | 28927 ft | 366 kts | 38° |
| 2026-05-07 23:13 | 34.99246 | -116.51124 | 28916 ft | 366 kts | 37° |
| 2026-05-07 23:14 | 35.03194 | -116.47209 | 28898 ft | 365 kts | 38° |
| 2026-05-07 23:14 | 35.07187 | -116.43377 | 28889 ft | 365 kts | 37° |
| 2026-05-07 23:15 | 35.10575 | -116.38782 | 28882 ft | 369 kts | 57° |
| 2026-05-07 23:15 | 35.11635 | -116.35920 | 28880 ft | 372 kts | 68° |
| 2026-05-07 23:15 | 35.12207 | -116.32870 | 28877 ft | 376 kts | 79° |
| 2026-05-07 23:15 | 35.12278 | -116.29622 | 28876 ft | 380 kts | 90° |
| 2026-05-07 23:16 | 35.11833 | -116.26467 | 28879 ft | 385 kts | 101° |
| 2026-05-07 23:16 | 35.09975 | -116.20313 | 28882 ft | 386 kts | 107° |
| 2026-05-07 23:17 | 35.08521 | -116.14046 | 28879 ft | 381 kts | 95° |
| 2026-05-07 23:17 | 35.08348 | -116.07633 | 28875 ft | 377 kts | 86° |
| 2026-05-07 23:18 | 35.07992 | -116.01222 | 28895 ft | 380 kts | 93° |
| 2026-05-07 23:18 | 35.07591 | -115.94806 | 28891 ft | 378 kts | 89° |
| 2026-05-07 23:19 | 35.07426 | -115.88402 | 28896 ft | 375 kts | 82° |
| 2026-05-07 23:19 | 35.07852 | -115.85276 | 28714 ft | 376 kts | 73° |
| 2026-05-07 23:19 | 35.08563 | -115.82175 | 28244 ft | 383 kts | 70° |
| 2026-05-07 23:19 | 35.09312 | -115.79045 | 27729 ft | 384 kts | 72° |
| 2026-05-07 23:20 | 35.09882 | -115.75870 | 27309 ft | 382 kts | 76° |
| 2026-05-07 23:20 | 35.10355 | -115.72690 | 26810 ft | 379 kts | 76° |
| 2026-05-07 23:20 | 35.10933 | -115.69555 | 26313 ft | 379 kts | 73° |
| 2026-05-07 23:20 | 35.11578 | -115.66440 | 25814 ft | 378 kts | 73° |
| 2026-05-07 23:21 | 35.12149 | -115.63302 | 25328 ft | 378 kts | 75° |
| 2026-05-07 23:21 | 35.12662 | -115.60167 | 24828 ft | 375 kts | 75° |
| 2026-05-07 23:21 | 35.13223 | -115.57070 | 24335 ft | 372 kts | 73° |
| 2026-05-07 23:21 | 35.13820 | -115.54015 | 23848 ft | 368 kts | 73° |
| 2026-05-07 23:22 | 35.14365 | -115.50981 | 23341 ft | 364 kts | 75° |
| 2026-05-07 23:22 | 35.14880 | -115.47981 | 22846 ft | 358 kts | 74° |
| 2026-05-07 23:22 | 35.15417 | -115.45035 | 22377 ft | 352 kts | 73° |
| 2026-05-07 23:22 | 35.15958 | -115.42141 | 21915 ft | 346 kts | 74° |
| 2026-05-07 23:23 | 35.16466 | -115.39298 | 21468 ft | 339 kts | 75° |
| 2026-05-07 23:23 | 35.16955 | -115.36514 | 21028 ft | 332 kts | 74° |
| 2026-05-07 23:23 | 35.17449 | -115.33788 | 20592 ft | 326 kts | 74° |
| 2026-05-07 23:23 | 35.17938 | -115.31107 | 20169 ft | 321 kts | 74° |
| 2026-05-07 23:24 | 35.18409 | -115.28462 | 19751 ft | 317 kts | 74° |
| 2026-05-07 23:24 | 35.18876 | -115.25834 | 19324 ft | 317 kts | 74° |
| 2026-05-07 23:24 | 35.19358 | -115.23197 | 18907 ft | 319 kts | 74° |
| 2026-05-07 23:24 | 35.19832 | -115.20543 | 18484 ft | 320 kts | 75° |
| 2026-05-07 23:25 | 35.20296 | -115.17881 | 18048 ft | 320 kts | 75° |
| 2026-05-07 23:25 | 35.20769 | -115.15225 | 17608 ft | 319 kts | 75° |
| 2026-05-07 23:25 | 35.21241 | -115.12589 | 17204 ft | 316 kts | 75° |
| 2026-05-07 23:25 | 35.21728 | -115.09986 | 16846 ft | 312 kts | 71° |
| 2026-05-07 23:26 | 35.22804 | -115.07751 | 16436 ft | 306 kts | 43° |
| 2026-05-07 23:26 | 35.24625 | -115.06488 | 16062 ft | 302 kts | 18° |
| 2026-05-07 23:26 | 35.26641 | -115.05812 | 15679 ft | 300 kts | 15° |
| 2026-05-07 23:26 | 35.28619 | -115.05017 | 15291 ft | 299 kts | 21° |
| 2026-05-07 23:27 | 35.32345 | -115.02754 | 14520 ft | 299 kts | 25° |
| 2026-05-07 23:27 | 35.34241 | -115.01713 | 14125 ft | 299 kts | 22° |
| 2026-05-07 23:27 | 35.36146 | -115.00703 | 13722 ft | 298 kts | 24° |
| 2026-05-07 23:28 | 35.37992 | -114.99639 | 13307 ft | 294 kts | 25° |
| 2026-05-07 23:28 | 35.39230 | -114.98918 | 13045 ft | 290 kts | 24° |
| 2026-05-07 23:28 | 35.41621 | -114.97584 | 12550 ft | 280 kts | 23° |
| 2026-05-07 23:28 | 35.43384 | -114.96600 | 12182 ft | 277 kts | 23° |
| 2026-05-07 23:29 | 35.45128 | -114.95626 | 11822 ft | 275 kts | 21° |
| 2026-05-07 23:29 | 35.46987 | -114.95253 | 11451 ft | 273 kts | 354° |
| 2026-05-07 23:29 | 35.48790 | -114.95941 | 11102 ft | 272 kts | 336° |
| 2026-05-07 23:29 | 35.50503 | -114.96911 | 10758 ft | 271 kts | 336° |
| 2026-05-07 23:30 | 35.51688 | -114.97492 | 10515 ft | 271 kts | 340° |
| 2026-05-07 23:30 | 35.53477 | -114.98203 | 10159 ft | 270 kts | 342° |
| 2026-05-07 23:30 | 35.55259 | -114.98914 | 9803 ft | 269 kts | 341° |
| 2026-05-07 23:30 | 35.57020 | -114.99688 | 9426 ft | 268 kts | 340° |
| 2026-05-07 23:31 | 35.58771 | -115.00360 | 9075 ft | 267 kts | 349° |
| 2026-05-07 23:31 | 35.60614 | -115.00129 | 8675 ft | 271 kts | 15° |
| 2026-05-07 23:31 | 35.62353 | -114.99248 | 8427 ft | 270 kts | 21° |
| 2026-05-07 23:31 | 35.64085 | -114.98354 | 8174 ft | 271 kts | 20° |
| 2026-05-07 23:32 | 35.65832 | -114.97469 | 7907 ft | 272 kts | 21° |
| 2026-05-07 23:32 | 35.67580 | -114.96573 | 7635 ft | 272 kts | 21° |
| 2026-05-07 23:32 | 35.69328 | -114.95686 | 7367 ft | 271 kts | 21° |
| 2026-05-07 23:32 | 35.71070 | -114.94815 | 7098 ft | 270 kts | 21° |
| 2026-05-07 23:33 | 35.72781 | -114.93904 | 7034 ft | 265 kts | 25° |
| 2026-05-07 23:33 | 35.74456 | -114.93004 | 7031 ft | 261 kts | 19° |
| 2026-05-07 23:33 | 35.76154 | -114.92224 | 7029 ft | 260 kts | 20° |
| 2026-05-07 23:33 | 35.77827 | -114.91407 | 7024 ft | 258 kts | 21° |
| 2026-05-07 23:34 | 35.79487 | -114.90569 | 7010 ft | 258 kts | 21° |
| 2026-05-07 23:34 | 35.81146 | -114.89731 | 7012 ft | 258 kts | 21° |
| 2026-05-07 23:34 | 35.82805 | -114.88896 | 7009 ft | 258 kts | 21° |
| 2026-05-07 23:34 | 35.84464 | -114.88061 | 7009 ft | 257 kts | 21° |
| 2026-05-07 23:35 | 35.86116 | -114.87225 | 7017 ft | 257 kts | 21° |
| 2026-05-07 23:35 | 35.87768 | -114.86392 | 7015 ft | 256 kts | 21° |
| 2026-05-07 23:35 | 35.89420 | -114.85564 | 7014 ft | 257 kts | 20° |
| 2026-05-07 23:35 | 35.91036 | -114.84746 | 7013 ft | 240 kts | 21° |
| 2026-05-07 23:36 | 35.92530 | -114.83986 | 7009 ft | 224 kts | 20° |
| 2026-05-07 23:36 | 35.93918 | -114.83276 | 7006 ft | 208 kts | 20° |
| 2026-05-07 23:36 | 35.95194 | -114.82613 | 7010 ft | 191 kts | 21° |
| 2026-05-07 23:36 | 35.96409 | -114.81974 | 7008 ft | 186 kts | 21° |
| 2026-05-07 23:37 | 35.97572 | -114.81363 | 7007 ft | 179 kts | 20° |
| 2026-05-07 23:37 | 35.98720 | -114.80769 | 7005 ft | 180 kts | 20° |
| 2026-05-07 23:37 | 35.99879 | -114.80142 | 7014 ft | 184 kts | 21° |
| 2026-05-07 23:37 | 36.01074 | -114.79496 | 7014 ft | 190 kts | 21° |
| 2026-05-07 23:38 | 36.02299 | -114.78836 | 7014 ft | 194 kts | 20° |
| 2026-05-07 23:38 | 36.03538 | -114.78168 | 7015 ft | 195 kts | 21° |
| 2026-05-07 23:38 | 36.04789 | -114.77490 | 7015 ft | 196 kts | 21° |
| 2026-05-07 23:38 | 36.06036 | -114.76821 | 7014 ft | 195 kts | 21° |
| 2026-05-07 23:39 | 36.07302 | -114.76318 | 6997 ft | 189 kts | 358° |
| 2026-05-07 23:39 | 36.08432 | -114.76933 | 7009 ft | 184 kts | 310° |
| 2026-05-07 23:39 | 36.08813 | -114.78406 | 7007 ft | 185 kts | 273° |
| 2026-05-07 23:39 | 36.08810 | -114.79991 | 7008 ft | 184 kts | 271° |
| 2026-05-07 23:40 | 36.08802 | -114.81573 | 7008 ft | 184 kts | 271° |
| 2026-05-07 23:40 | 36.08785 | -114.83160 | 7008 ft | 184 kts | 271° |
| 2026-05-07 23:40 | 36.08769 | -114.84742 | 7010 ft | 184 kts | 271° |
| 2026-05-07 23:40 | 36.08758 | -114.86324 | 7009 ft | 184 kts | 271° |
| 2026-05-07 23:41 | 36.08739 | -114.87903 | 7010 ft | 184 kts | 271° |
| 2026-05-07 23:41 | 36.08721 | -114.89488 | 7009 ft | 184 kts | 271° |
| 2026-05-07 23:41 | 36.08707 | -114.91072 | 7002 ft | 184 kts | 271° |
| 2026-05-07 23:41 | 36.08690 | -114.92658 | 6986 ft | 185 kts | 271° |
| 2026-05-07 23:42 | 36.08672 | -114.94247 | 6982 ft | 185 kts | 271° |
| 2026-05-07 23:42 | 36.08656 | -114.95832 | 7010 ft | 184 kts | 271° |
| 2026-05-07 23:42 | 36.08630 | -114.97385 | 6906 ft | 178 kts | 269° |
| 2026-05-07 23:42 | 36.08516 | -114.98928 | 6639 ft | 179 kts | 266° |
| 2026-05-07 23:43 | 36.08439 | -115.00427 | 6456 ft | 174 kts | 270° |
| 2026-05-07 23:43 | 36.08451 | -115.01918 | 6218 ft | 174 kts | 271° |
| 2026-05-07 23:43 | 36.08478 | -115.03416 | 5974 ft | 175 kts | 271° |
| 2026-05-07 23:43 | 36.08507 | -115.04920 | 5732 ft | 175 kts | 271° |
| 2026-05-07 23:44 | 36.08528 | -115.06427 | 5493 ft | 175 kts | 268° |
| 2026-05-07 23:44 | 36.08399 | -115.07912 | 5318 ft | 172 kts | 258° |
| 2026-05-07 23:44 | 36.08068 | -115.09322 | 5134 ft | 173 kts | 250° |
| 2026-05-07 23:44 | 36.07574 | -115.10610 | 5034 ft | 161 kts | 239° |
| 2026-05-07 23:45 | 36.06904 | -115.11753 | 4854 ft | 170 kts | 230° |
| 2026-05-07 23:45 | 36.06042 | -115.12775 | 4772 ft | 174 kts | 219° |
| 2026-05-07 23:45 | 36.05044 | -115.13647 | 4628 ft | 177 kts | 211° |
| 2026-05-07 23:45 | 36.03949 | -115.14285 | 4650 ft | 172 kts | 202° |
| 2026-05-07 23:46 | 36.02805 | -115.14729 | 4629 ft | 175 kts | 195° |
| 2026-05-07 23:46 | 36.01596 | -115.15055 | 4555 ft | 180 kts | 192° |
| 2026-05-07 23:46 | 36.00363 | -115.15362 | 4399 ft | 182 kts | 192° |
| 2026-05-07 23:46 | 35.99113 | -115.15678 | 4229 ft | 183 kts | 192° |
| 2026-05-07 23:47 | 35.97961 | -115.15894 | 3972 ft | 157 kts | 188° |
| 2026-05-07 23:47 | 35.96891 | -115.16075 | 3680 ft | 152 kts | 188° |
| 2026-05-07 23:47 | 35.95861 | -115.16206 | 3443 ft | 145 kts | 182° |
| 2026-05-07 23:47 | 35.94926 | -115.15947 | 3362 ft | 132 kts | 153° |
| 2026-05-07 23:48 | 35.94360 | -115.15215 | 3647 ft | 110 kts | 114° |
| 2026-05-07 23:48 | 35.94388 | -115.14289 | 3628 ft | 117 kts | 65° |
| 2026-05-07 23:48 | 35.95075 | -115.13628 | 3245 ft | 144 kts | 14° |
| 2026-05-07 23:48 | 35.96096 | -115.13557 | 2619 ft | 142 kts | 0° |
| 2026-05-07 23:49 | 35.96974 | -115.13549 | 2457 ft | 106 kts | 1° |
| 2026-05-07 23:49 | 35.97504 | -115.13541 | 2440 ft | 55 kts | 0° |
| 2026-05-07 23:49 | 35.97719 | -115.13539 | 2432 ft | 15 kts | 351° |
| 2026-05-07 23:49 | 35.97744 | -115.13617 | 2429 ft | 0 kts | 269° |